createdAt,value
2017-01-07T12:19:21.452Z,50
2017-01-07T12:20:44.643Z,55
2017-01-07T12:22:08.683Z,50
2017-01-07T12:23:31.630Z,50
2017-01-07T12:24:55.500Z,50
2017-01-07T12:26:18.776Z,50
2017-01-07T12:27:41.456Z,60
2017-01-07T12:29:04.377Z,55
2017-01-07T12:30:27.754Z,65
2017-01-07T12:31:50.955Z,70
2017-01-07T12:33:14.054Z,60
2017-01-07T12:34:37.519Z,50
2017-01-07T12:36:01.106Z,55
2017-01-07T12:37:24.756Z,55
2017-01-07T12:38:48.932Z,55
2017-01-07T12:40:12.157Z,55
2017-01-07T12:42:04.512Z,55
2017-01-07T12:43:28.293Z,55
2017-01-07T12:44:53.285Z,50
2017-01-07T12:46:17.405Z,50
2017-01-07T12:47:40.914Z,55
2017-01-07T12:49:03.389Z,50
2017-01-07T12:50:26.194Z,50
2017-01-07T12:51:50.704Z,55
2017-01-07T12:53:13.517Z,45
2017-01-07T12:54:35.794Z,50
2017-01-07T12:55:59.366Z,55
2017-01-07T12:57:22.556Z,50
2017-01-07T12:58:46.792Z,45
2017-01-07T13:00:10.384Z,55
2017-01-07T13:01:34.937Z,50
2017-01-07T13:02:58.301Z,50
2017-01-07T13:04:22.787Z,45
2017-01-07T13:05:46.634Z,50
2017-01-07T13:07:09.465Z,50
2017-01-07T13:08:32.757Z,45
2017-01-07T13:09:56.096Z,45
2017-01-07T13:11:19.258Z,40
2017-01-07T13:12:42.857Z,35
2017-01-07T13:14:06.806Z,35
2017-01-07T13:15:31.032Z,40
2017-01-07T13:16:55.545Z,40
2017-01-07T13:18:18.718Z,40
2017-01-07T13:19:42.961Z,45
2017-01-07T13:21:06.766Z,45
2017-01-07T13:22:31.406Z,45
2017-01-07T13:23:55.351Z,40
2017-01-07T13:25:19.603Z,50
2017-01-07T13:26:43.758Z,50
2017-01-07T13:28:06.540Z,45
2017-01-07T13:29:29.391Z,45
2017-01-07T13:30:53.649Z,40
2017-01-07T13:32:15.951Z,40
2017-01-07T13:33:40.264Z,45
2017-01-07T13:35:03.578Z,45
2017-01-07T13:36:28.409Z,45
2017-01-07T13:37:52.098Z,40
2017-01-07T13:39:13.894Z,35
2017-01-07T13:40:37.303Z,35
2017-01-07T13:42:00.199Z,30
2017-01-07T13:43:23.609Z,25
2017-01-07T13:44:47.222Z,30
2017-01-07T13:46:11.235Z,25
2017-01-07T13:47:33.949Z,20
2017-01-07T13:48:57.626Z,25
2017-01-07T13:50:21.727Z,25
2017-01-07T13:51:44.576Z,25
2017-01-07T13:53:08.425Z,25
2017-01-07T13:54:32.047Z,20
2017-01-07T13:55:55.895Z,20
2017-01-07T13:57:19.452Z,20
2017-01-07T13:58:43.753Z,20
2017-01-07T14:00:07.503Z,20
2017-01-07T14:01:31.339Z,20
2017-01-07T14:02:54.577Z,20
2017-01-07T14:04:18.836Z,20
2017-01-07T14:05:42.243Z,20
2017-01-07T14:07:06.023Z,15
2017-01-07T14:08:29.625Z,15
2017-01-07T14:09:53.116Z,15
2017-01-07T14:11:16.563Z,15
2017-01-07T14:12:40.325Z,10
2017-01-07T14:14:03.768Z,10
2017-01-07T14:15:26.968Z,10
2017-01-07T14:16:50.226Z,10
2017-01-07T14:18:13.800Z,10
2017-01-07T14:19:37.332Z,10
2017-01-07T14:21:02.619Z,10
2017-01-07T14:22:27.304Z,10
2017-01-07T14:23:49.360Z,10
2017-01-07T14:25:11.845Z,10
2017-01-07T14:26:36.263Z,15
2017-01-07T14:28:01.588Z,15
2017-01-07T14:29:25.272Z,15
2017-01-07T14:30:50.265Z,15
2017-01-07T14:32:13.375Z,10
2017-01-07T14:33:38.171Z,15
2017-01-07T14:35:02.287Z,10
2017-01-07T14:36:27.544Z,10
2017-01-07T14:37:51.127Z,10
2017-01-07T14:39:14.789Z,10
2017-01-07T14:40:38.118Z,10
2017-01-07T14:42:03.494Z,10
2017-01-07T14:43:27.702Z,10
2017-01-07T14:44:51.038Z,10
2017-01-07T14:46:15.505Z,10
2017-01-07T14:47:39.735Z,10
2017-01-07T14:49:03.750Z,5
2017-01-07T14:50:26.066Z,5
2017-01-07T14:51:49.550Z,5
2017-01-07T14:53:12.413Z,5
2017-01-07T14:54:35.959Z,5
2017-01-07T14:55:59.305Z,5
2017-01-07T14:57:22.524Z,5
2017-01-07T14:58:47.125Z,5
2017-01-07T15:00:11.564Z,5
2017-01-07T15:01:34.281Z,5
2017-01-07T15:02:58.064Z,5
2017-01-07T15:04:20.930Z,5
2017-01-07T15:05:45.721Z,0
2017-01-07T15:07:10.990Z,5
2017-01-07T15:08:34.924Z,0
2017-01-07T15:09:58.149Z,0
2017-01-07T15:11:21.785Z,0
2017-01-07T15:12:45.595Z,0
2017-01-07T15:14:09.246Z,0
2017-01-07T15:15:32.817Z,0
2017-01-07T15:16:57.488Z,0
2017-01-07T15:18:20.865Z,0
2017-01-07T15:19:43.847Z,0
2017-01-07T15:21:08.862Z,0
2017-01-07T15:22:58.557Z,0
2017-01-07T15:24:22.946Z,0
2017-01-07T15:26:17.009Z,0
2017-01-07T15:27:43.107Z,0
2017-01-07T15:29:46.203Z,0
2017-01-07T15:32:31.894Z,0
2017-01-07T15:33:54.987Z,0
2017-01-07T15:35:23.815Z,0
2017-01-07T15:36:47.117Z,0
2017-01-07T15:38:10.636Z,0
2017-01-07T15:39:34.923Z,0
2017-01-07T15:40:59.583Z,0
2017-01-07T15:42:23.678Z,0
2017-01-07T15:43:46.723Z,0
2017-01-07T15:45:11.546Z,0
2017-01-07T15:46:36.583Z,0
2017-01-07T15:48:00.364Z,0
2017-01-07T15:49:24.848Z,0
2017-01-07T15:50:48.643Z,0
2017-01-07T15:52:11.834Z,0
2017-01-07T15:53:35.922Z,0
2017-01-07T15:55:00.310Z,0
2017-01-07T15:56:24.003Z,0
2017-01-07T15:57:47.032Z,0
2017-01-07T15:59:10.471Z,0
2017-01-07T16:00:34.453Z,0
2017-01-07T16:01:59.061Z,0
2017-01-07T16:03:24.509Z,0
2017-01-07T16:04:48.052Z,0
2017-01-07T16:06:12.305Z,0
2017-01-07T16:07:36.932Z,0
2017-01-07T16:09:00.599Z,0
2017-01-07T16:10:25.401Z,0
2017-01-07T16:11:48.601Z,0
2017-01-07T16:13:12.572Z,0
2017-01-07T16:14:36.723Z,0
2017-01-07T16:16:00.540Z,0
2017-01-07T16:17:23.250Z,0
2017-01-07T16:18:47.357Z,0
2017-01-07T16:20:11.922Z,0
2017-01-07T16:21:36.736Z,0
2017-01-07T16:23:00.334Z,0
2017-01-07T16:24:25.029Z,0
2017-01-07T16:25:48.567Z,0
2017-01-07T16:27:11.882Z,0
2017-01-07T16:28:35.999Z,0
2017-01-07T16:29:59.648Z,0
2017-01-07T16:31:23.595Z,0
2017-01-07T16:32:48.579Z,0
2017-01-07T16:34:11.259Z,0
2017-01-07T16:35:35.457Z,0
2017-01-07T16:36:58.977Z,0
2017-01-07T16:38:22.573Z,0
2017-01-07T16:39:47.269Z,0
2017-01-07T16:41:10.862Z,0
2017-01-07T16:42:35.052Z,0
2017-01-07T16:43:59.390Z,0
2017-01-07T16:45:23.311Z,0
2017-01-07T16:46:46.755Z,0
2017-01-07T16:48:10.587Z,0
2017-01-07T16:49:34.687Z,0
2017-01-07T16:50:59.357Z,0
2017-01-07T16:52:21.965Z,0
2017-01-07T16:53:45.335Z,0
2017-01-07T16:55:10.339Z,0
2017-01-07T16:56:34.635Z,0
2017-01-07T16:58:00.035Z,0
2017-01-07T16:59:24.545Z,0
2017-01-07T17:00:47.713Z,0
2017-01-07T17:02:11.819Z,0
2017-01-07T17:03:34.222Z,0
2017-01-07T17:04:58.298Z,0
2017-01-07T17:06:22.030Z,0
2017-01-07T17:07:46.873Z,0
2017-01-07T17:09:11.277Z,0
2017-01-07T17:10:37.027Z,0
2017-01-07T17:12:01.045Z,0
2017-01-07T17:13:25.677Z,0
2017-01-07T17:14:49.863Z,0
2017-01-07T17:16:12.970Z,0
2017-01-07T17:17:36.971Z,0
2017-01-07T17:19:01.397Z,0
2017-01-07T17:20:24.920Z,0
2017-01-07T17:21:47.632Z,0
2017-01-07T17:23:10.149Z,0
2017-01-07T17:24:33.043Z,0
2017-01-07T17:25:56.672Z,0
2017-01-07T17:27:20.470Z,0
2017-01-07T17:28:45.292Z,0
2017-01-07T17:30:08.837Z,0
2017-01-07T17:31:33.148Z,0
2017-01-07T17:32:56.794Z,0
2017-01-07T17:34:19.727Z,0
2017-01-07T17:35:42.905Z,0
2017-01-07T17:37:07.256Z,0
2017-01-07T17:38:32.189Z,0
2017-01-07T17:39:55.403Z,0
2017-01-07T17:41:20.517Z,0
2017-01-07T17:42:45.576Z,0
2017-01-07T17:44:08.279Z,0
2017-01-07T17:46:03.092Z,0
2017-01-07T17:47:27.005Z,0
2017-01-07T17:48:51.364Z,0
2017-01-07T17:50:15.419Z,0
2017-01-07T17:51:39.072Z,0
2017-01-07T17:53:03.514Z,0
2017-01-07T17:54:27.261Z,0
2017-01-07T17:55:50.966Z,0
2017-01-07T17:57:15.062Z,0
2017-01-07T17:58:38.271Z,0
2017-01-07T18:00:02.011Z,0
2017-01-07T18:01:25.078Z,0
2017-01-07T18:02:49.339Z,0
2017-01-07T18:04:12.275Z,0
2017-01-07T18:05:35.034Z,0
2017-01-07T18:06:58.291Z,0
2017-01-07T18:08:22.122Z,0
2017-01-07T18:09:46.156Z,0
2017-01-07T18:11:11.494Z,0
2017-01-07T18:12:33.981Z,0
2017-01-07T18:13:58.163Z,0
2017-01-07T18:15:21.334Z,0
2017-01-07T18:16:45.290Z,0
2017-01-07T18:18:09.042Z,0
2017-01-07T18:19:33.451Z,0
2017-01-07T18:20:57.035Z,0
2017-01-07T18:22:20.344Z,0
2017-01-07T18:23:43.622Z,0
2017-01-07T18:25:06.673Z,0
2017-01-07T18:26:31.681Z,0
2017-01-07T18:27:55.623Z,0
2017-01-07T18:29:19.905Z,0
2017-01-07T18:30:44.428Z,0
2017-01-07T18:32:07.733Z,0
2017-01-07T18:33:31.963Z,0
2017-01-07T18:34:55.523Z,0
2017-01-07T18:36:18.637Z,0
2017-01-07T18:37:42.235Z,0
2017-01-07T18:39:06.441Z,0
2017-01-07T18:40:30.925Z,0
2017-01-07T18:41:56.376Z,0
2017-01-07T18:43:19.822Z,0
2017-01-07T18:44:44.464Z,0
2017-01-07T18:46:07.128Z,0
2017-01-07T18:47:30.176Z,0
2017-01-07T18:48:54.245Z,0
2017-01-07T18:50:18.367Z,0
2017-01-07T18:51:42.660Z,0
2017-01-07T18:53:06.918Z,0
2017-01-07T18:54:32.328Z,0
2017-01-07T18:55:55.577Z,0
2017-01-07T18:57:20.617Z,0
2017-01-07T18:58:43.997Z,0
2017-01-07T19:00:10.728Z,0
2017-01-07T19:01:34.791Z,0
2017-01-07T19:02:58.381Z,0
2017-01-07T19:04:22.190Z,0
2017-01-07T19:05:45.849Z,0
2017-01-07T19:07:10.088Z,0
2017-01-07T19:08:35.487Z,0
2017-01-07T19:09:59.668Z,0
2017-01-07T19:11:24.643Z,0
2017-01-07T19:12:48.909Z,0
2017-01-07T19:14:13.035Z,0
2017-01-07T19:15:36.521Z,0
2017-01-07T19:17:01.625Z,0
2017-01-07T19:18:26.973Z,0
2017-01-07T19:19:50.696Z,0
2017-01-07T19:21:15.331Z,0
2017-01-07T19:22:39.837Z,0
2017-01-07T19:24:03.850Z,0
2017-01-07T19:25:27.036Z,0
2017-01-07T19:26:50.675Z,0
2017-01-07T19:28:14.705Z,0
2017-01-07T19:29:38.617Z,0
2017-01-07T19:31:04.042Z,0
2017-01-07T19:32:29.826Z,0
2017-01-07T19:33:54.049Z,0
2017-01-07T19:35:18.711Z,0
2017-01-07T19:36:42.431Z,0
2017-01-07T19:38:06.867Z,0
2017-01-07T19:39:29.816Z,0
2017-01-07T19:40:53.390Z,0
2017-01-07T19:42:16.283Z,0
2017-01-07T19:43:39.394Z,0
2017-01-07T19:45:03.975Z,0
2017-01-07T19:46:27.433Z,0
2017-01-07T19:47:52.407Z,0
2017-01-07T19:49:15.677Z,0
2017-01-07T19:50:39.251Z,0
2017-01-07T19:52:04.173Z,0
2017-01-07T19:53:28.093Z,0
2017-01-07T19:54:52.113Z,0
2017-01-07T19:56:15.747Z,0
2017-01-07T19:57:39.729Z,0
2017-01-07T19:59:03.205Z,0
2017-01-07T20:00:27.036Z,0
2017-01-07T20:01:52.372Z,0
2017-01-07T20:03:17.291Z,0
2017-01-07T20:04:40.822Z,0
2017-01-07T20:06:05.818Z,0
2017-01-07T20:07:29.329Z,0
2017-01-07T20:08:53.635Z,0
2017-01-07T20:10:18.708Z,0
2017-01-07T20:11:44.538Z,0
2017-01-07T20:13:08.652Z,0
2017-01-07T20:14:35.046Z,0
2017-01-07T20:15:58.852Z,0
2017-01-07T20:17:24.291Z,0
2017-01-07T20:18:46.759Z,0
2017-01-07T20:20:10.827Z,0
2017-01-07T20:21:34.898Z,0
2017-01-07T20:22:59.183Z,0
2017-01-07T20:24:23.578Z,0
2017-01-07T20:25:48.928Z,0
2017-01-07T20:27:12.283Z,0
2017-01-07T20:28:35.836Z,0
2017-01-07T20:30:00.080Z,0
2017-01-07T20:31:24.304Z,0
2017-01-07T20:32:50.088Z,0
2017-01-07T20:34:14.298Z,0
2017-01-07T20:35:39.488Z,0
2017-01-07T20:37:03.204Z,0
2017-01-07T20:38:26.835Z,0
2017-01-07T20:39:52.166Z,0
2017-01-07T20:41:17.724Z,0
2017-01-07T20:42:42.781Z,0
2017-01-07T20:44:06.324Z,0
2017-01-07T20:45:33.127Z,0
2017-01-07T20:46:59.406Z,0
2017-01-07T20:48:25.225Z,0
2017-01-07T20:49:50.258Z,0
2017-01-07T20:51:15.065Z,0
2017-01-07T20:52:38.689Z,0
2017-01-07T20:54:04.174Z,0
2017-01-07T20:55:28.011Z,0
2017-01-07T20:56:51.158Z,0
2017-01-07T20:58:14.620Z,0
2017-01-07T20:59:39.045Z,0
2017-01-07T21:01:04.587Z,0
2017-01-07T21:02:27.647Z,0
2017-01-07T21:03:51.283Z,0
2017-01-07T21:05:16.127Z,0
2017-01-07T21:06:42.440Z,0
2017-01-07T21:08:37.812Z,0
2017-01-07T21:10:01.177Z,0
2017-01-07T21:11:26.285Z,0
2017-01-07T21:12:52.456Z,0
2017-01-07T21:14:17.223Z,0
2017-01-07T21:15:41.019Z,0
2017-01-07T21:17:02.799Z,0
2017-01-07T21:18:27.819Z,0
2017-01-07T21:19:51.081Z,0
2017-01-07T21:21:14.148Z,0
2017-01-07T21:22:37.853Z,0
2017-01-07T21:24:00.597Z,0
2017-01-07T21:25:23.848Z,0
2017-01-07T21:26:47.479Z,0
2017-01-07T21:28:11.929Z,0
2017-01-07T21:29:35.086Z,0
2017-01-07T21:31:00.460Z,0
2017-01-07T21:32:25.177Z,0
2017-01-07T21:33:48.944Z,0
2017-01-07T21:35:13.212Z,0
2017-01-07T21:36:36.875Z,0
2017-01-07T21:37:59.994Z,0
2017-01-07T21:39:24.498Z,0
2017-01-07T21:40:48.420Z,0
2017-01-07T21:42:13.657Z,0
2017-01-07T21:43:36.914Z,0
2017-01-07T21:45:01.355Z,0
2017-01-07T21:46:25.804Z,0
2017-01-07T21:47:49.676Z,0
2017-01-07T21:49:14.935Z,0
2017-01-07T21:50:39.706Z,0
2017-01-07T21:52:04.401Z,0
2017-01-07T21:53:28.052Z,0
2017-01-07T21:54:52.031Z,0
2017-01-07T21:56:17.851Z,0
2017-01-07T21:57:42.829Z,0
2017-01-07T21:59:07.571Z,0
2017-01-07T22:00:31.613Z,0
2017-01-07T22:01:53.795Z,0
2017-01-07T22:03:16.790Z,0
2017-01-07T22:04:41.888Z,0
2017-01-07T22:06:07.099Z,0
2017-01-07T22:07:31.286Z,0
2017-01-07T22:08:54.364Z,0
2017-01-07T22:10:19.284Z,0
2017-01-07T22:11:43.864Z,0
2017-01-07T22:13:09.111Z,0
2017-01-07T22:14:32.348Z,0
2017-01-07T22:15:55.313Z,0
2017-01-07T22:17:17.112Z,0
2017-01-07T22:18:39.210Z,0
2017-01-07T22:20:03.485Z,0
2017-01-07T22:21:27.047Z,0
2017-01-07T22:22:49.727Z,0
2017-01-07T22:24:13.051Z,0
2017-01-07T22:25:35.556Z,0
2017-01-07T22:26:58.839Z,0
2017-01-07T22:28:21.937Z,0
2017-01-07T22:29:45.876Z,0
2017-01-07T22:31:09.623Z,0
2017-01-07T22:32:34.747Z,0
2017-01-07T22:33:57.902Z,0
2017-01-07T22:35:21.746Z,0
2017-01-07T22:36:45.354Z,0
2017-01-07T22:38:09.279Z,0
2017-01-07T22:39:33.307Z,0
2017-01-07T22:40:56.690Z,0
2017-01-07T22:42:21.017Z,0
2017-01-07T22:43:45.256Z,0
2017-01-07T22:45:08.992Z,0
2017-01-07T22:46:34.220Z,0
2017-01-07T22:47:58.789Z,0
2017-01-07T22:49:22.158Z,0
2017-01-07T22:50:45.006Z,0
2017-01-07T22:52:08.933Z,0
2017-01-07T22:53:33.150Z,0
2017-01-07T22:54:57.998Z,0
2017-01-07T22:56:23.208Z,0
2017-01-07T22:57:47.559Z,0
2017-01-07T22:59:10.542Z,0
2017-01-07T23:00:33.454Z,0
2017-01-07T23:01:57.124Z,0
2017-01-07T23:03:19.352Z,0
2017-01-07T23:04:42.960Z,0
2017-01-07T23:06:06.214Z,0
2017-01-07T23:07:30.133Z,0
2017-01-07T23:08:54.780Z,0
2017-01-07T23:10:16.818Z,0
2017-01-07T23:11:40.386Z,0
2017-01-07T23:13:03.953Z,0
2017-01-07T23:14:27.590Z,0
2017-01-07T23:15:50.643Z,0
2017-01-07T23:17:15.059Z,0
2017-01-07T23:18:39.161Z,0
2017-01-07T23:20:03.190Z,0
2017-01-07T23:21:26.840Z,0
2017-01-07T23:22:49.557Z,0
2017-01-07T23:24:12.798Z,0
2017-01-07T23:25:35.758Z,0
2017-01-07T23:26:59.110Z,0
2017-01-07T23:28:23.734Z,0
2017-01-07T23:29:47.041Z,0
2017-01-07T23:31:10.899Z,0
2017-01-07T23:32:34.201Z,0
2017-01-07T23:33:57.234Z,0
2017-01-07T23:35:20.662Z,0
2017-01-07T23:36:43.978Z,0
2017-01-07T23:38:07.357Z,0
2017-01-07T23:39:30.938Z,0
2017-01-07T23:40:53.749Z,0
2017-01-07T23:42:17.118Z,0
2017-01-07T23:43:40.521Z,0
2017-01-07T23:45:03.915Z,0
2017-01-07T23:46:26.612Z,0
2017-01-07T23:47:49.207Z,0
2017-01-07T23:49:11.791Z,0
2017-01-07T23:50:34.427Z,0
2017-01-07T23:51:57.416Z,0
2017-01-07T23:53:20.838Z,0
2017-01-07T23:54:43.969Z,0
2017-01-07T23:56:06.582Z,0
2017-01-07T23:57:29.615Z,0
2017-01-07T23:58:52.683Z,0
